sensor_id;sensor_type;location;lat;lon;timestamp;noise_LAeq;noise_LA_min;noise_LA_max;noise_LA01;noise_LA95
56745;Laerm;42622;49.972;8.452;2022-08-19T00:01:57;42.47;39.34;44.73;;
56745;Laerm;42622;49.972;8.452;2022-08-19T00:04:34;42.18;40.33;44.23;;
56745;Laerm;42622;49.972;8.452;2022-08-19T00:07:05;42.31;40.13;45.54;;
56745;Laerm;42622;49.972;8.452;2022-08-19T00:09:31;42.26;40.23;44.80;;
56745;Laerm;42622;49.972;8.452;2022-08-19T00:11:58;42.27;40.33;44.19;;
56745;Laerm;42622;49.972;8.452;2022-08-19T00:14:27;42.66;39.92;45.07;;
56745;Laerm;42622;49.972;8.452;2022-08-19T00:16:57;42.43;40.43;44.07;;
56745;Laerm;42622;49.972;8.452;2022-08-19T00:19:25;42.45;40.33;46.10;;
56745;Laerm;42622;49.972;8.452;2022-08-19T00:21:52;42.63;40.23;44.83;;
56745;Laerm;42622;49.972;8.452;2022-08-19T00:24:18;42.24;39.08;44.73;;
56745;Laerm;42622;49.972;8.452;2022-08-19T00:26:45;42.39;39.46;46.40;;
56745;Laerm;42622;49.972;8.452;2022-08-19T00:29:17;42.66;40.33;45.94;;
56745;Laerm;42622;49.972;8.452;2022-08-19T00:31:45;43.21;40.98;49.51;;
56745;Laerm;42622;49.972;8.452;2022-08-19T00:34:14;42.94;40.23;45.80;;
56745;Laerm;42622;49.972;8.452;2022-08-19T00:36:43;42.77;40.03;48.36;;
56745;Laerm;42622;49.972;8.452;2022-08-19T00:39:10;42.83;40.33;48.80;;
56745;Laerm;42622;49.972;8.452;2022-08-19T00:41:36;42.58;39.70;48.08;;
56745;Laerm;42622;49.972;8.452;2022-08-19T00:46:43;43.19;40.33;47.54;;
56745;Laerm;42622;49.972;8.452;2022-08-19T00:49:35;42.96;40.33;48.08;;
56745;Laerm;42622;49.972;8.452;2022-08-19T00:52:15;43.33;40.71;48.21;;
56745;Laerm;42622;49.972;8.452;2022-08-19T00:54:45;44.26;41.53;50.24;;
56745;Laerm;42622;49.972;8.452;2022-08-19T00:57:22;43.57;41.22;47.79;;
56745;Laerm;42622;49.972;8.452;2022-08-19T00:59:56;43.46;40.43;50.17;;
56745;Laerm;42622;49.972;8.452;2022-08-19T01:02:24;43.36;39.70;47.48;;
56745;Laerm;42622;49.972;8.452;2022-08-19T01:04:51;43.05;40.23;57.25;;
56745;Laerm;42622;49.972;8.452;2022-08-19T01:07:17;43.49;39.58;52.51;;
56745;Laerm;42622;49.972;8.452;2022-08-19T01:09:44;43.81;41.14;49.45;;
56745;Laerm;42622;49.972;8.452;2022-08-19T01:12:09;44.43;41.30;53.89;;
56745;Laerm;42622;49.972;8.452;2022-08-19T01:14:39;43.60;41.11;55.07;;
56745;Laerm;42622;49.972;8.452;2022-08-19T01:17:09;43.30;40.80;59.85;;
56745;Laerm;42622;49.972;8.452;2022-08-19T01:19:43;43.63;40.23;52.80;;
56745;Laerm;42622;49.972;8.452;2022-08-19T01:22:30;43.09;40.62;47.72;;
56745;Laerm;42622;49.972;8.452;2022-08-19T01:24:57;43.56;41.53;55.06;;
56745;Laerm;42622;49.972;8.452;2022-08-19T01:27:23;43.49;40.98;50.05;;
56745;Laerm;42622;49.972;8.452;2022-08-19T01:29:49;43.71;41.30;47.20;;
56745;Laerm;42622;49.972;8.452;2022-08-19T01:32:17;43.88;39.46;52.53;;
56745;Laerm;42622;49.972;8.452;2022-08-19T01:34:43;43.28;40.23;45.69;;
56745;Laerm;42622;49.972;8.452;2022-08-19T01:37:14;42.97;40.80;47.08;;
56745;Laerm;42622;49.972;8.452;2022-08-19T01:39:41;42.89;40.71;53.67;;
56745;Laerm;42622;49.972;8.452;2022-08-19T01:42:09;42.33;40.23;56.50;;
56745;Laerm;42622;49.972;8.452;2022-08-19T01:44:40;42.84;40.03;48.16;;
56745;Laerm;42622;49.972;8.452;2022-08-19T01:47:09;42.61;39.34;45.51;;
56745;Laerm;42622;49.972;8.452;2022-08-19T01:49:37;42.76;40.23;45.14;;
56745;Laerm;42622;49.972;8.452;2022-08-19T01:52:05;42.24;38.52;44.58;;
56745;Laerm;42622;49.972;8.452;2022-08-19T01:54:32;42.88;40.43;49.44;;
56745;Laerm;42622;49.972;8.452;2022-08-19T01:57:12;43.00;41.06;46.52;;
56745;Laerm;42622;49.972;8.452;2022-08-19T01:59:44;42.92;40.80;46.76;;
56745;Laerm;42622;49.972;8.452;2022-08-19T02:02:10;42.57;40.23;49.64;;
56745;Laerm;42622;49.972;8.452;2022-08-19T02:04:37;42.74;40.33;49.56;;
56745;Laerm;42622;49.972;8.452;2022-08-19T02:07:06;42.34;40.03;45.57;;
56745;Laerm;42622;49.972;8.452;2022-08-19T02:09:35;42.75;40.23;47.40;;
56745;Laerm;42622;49.972;8.452;2022-08-19T02:12:01;42.48;39.58;49.21;;
56745;Laerm;42622;49.972;8.452;2022-08-19T02:14:26;42.34;40.03;46.69;;
56745;Laerm;42622;49.972;8.452;2022-08-19T02:16:52;45.53;41.06;59.82;;
56745;Laerm;42622;49.972;8.452;2022-08-19T02:19:18;45.14;43.49;49.39;;
56745;Laerm;42622;49.972;8.452;2022-08-19T02:21:44;44.61;41.82;47.98;;
56745;Laerm;42622;49.972;8.452;2022-08-19T02:24:10;43.34;41.53;45.83;;
56745;Laerm;42622;49.972;8.452;2022-08-19T02:26:36;44.50;41.22;53.80;;
56745;Laerm;42622;49.972;8.452;2022-08-19T02:29:03;43.68;41.68;49.56;;
56745;Laerm;42622;49.972;8.452;2022-08-19T02:31:29;43.70;41.30;47.83;;
56745;Laerm;42622;49.972;8.452;2022-08-19T02:33:56;43.55;41.82;47.08;;
56745;Laerm;42622;49.972;8.452;2022-08-19T02:36:25;43.49;41.82;46.10;;
56745;Laerm;42622;49.972;8.452;2022-08-19T02:38:53;43.47;41.61;47.70;;
56745;Laerm;42622;49.972;8.452;2022-08-19T02:41:31;44.19;41.30;50.88;;
56745;Laerm;42622;49.972;8.452;2022-08-19T02:44:02;43.59;41.61;45.60;;
56745;Laerm;42622;49.972;8.452;2022-08-19T02:46:33;43.70;41.82;48.67;;
56745;Laerm;42622;49.972;8.452;2022-08-19T02:49:08;43.37;41.53;45.77;;
56745;Laerm;42622;49.972;8.452;2022-08-19T02:51:39;43.30;40.71;49.27;;
56745;Laerm;42622;49.972;8.452;2022-08-19T02:54:09;43.19;40.43;53.90;;
56745;Laerm;42622;49.972;8.452;2022-08-19T02:56:40;44.08;40.62;53.96;;
56745;Laerm;42622;49.972;8.452;2022-08-19T02:59:07;43.60;41.38;50.85;;
56745;Laerm;42622;49.972;8.452;2022-08-19T03:01:34;43.88;41.38;47.54;;
56745;Laerm;42622;49.972;8.452;2022-08-19T03:04:05;47.70;41.82;61.57;;
56745;Laerm;42622;49.972;8.452;2022-08-19T03:06:31;45.55;41.38;56.63;;
56745;Laerm;42622;49.972;8.452;2022-08-19T03:08:58;51.68;41.96;66.06;;
56745;Laerm;42622;49.972;8.452;2022-08-19T03:11:30;48.38;42.29;62.25;;
56745;Laerm;42622;49.972;8.452;2022-08-19T03:13:59;46.81;42.16;60.06;;
56745;Laerm;42622;49.972;8.452;2022-08-19T03:16:31;48.68;42.76;62.31;;
56745;Laerm;42622;49.972;8.452;2022-08-19T03:21:30;46.24;41.96;56.15;;
56745;Laerm;42622;49.972;8.452;2022-08-19T03:24:04;46.67;42.16;59.34;;
56745;Laerm;42622;49.972;8.452;2022-08-19T03:26:31;44.31;41.89;48.81;;
56745;Laerm;42622;49.972;8.452;2022-08-19T03:29:02;45.74;42.41;54.69;;
56745;Laerm;42622;49.972;8.452;2022-08-19T03:31:28;44.96;42.29;55.14;;
56745;Laerm;42622;49.972;8.452;2022-08-19T03:33:54;45.32;42.35;50.41;;
56745;Laerm;42622;49.972;8.452;2022-08-19T03:36:27;44.66;41.89;54.09;;
56745;Laerm;42622;49.972;8.452;2022-08-19T03:38:58;44.57;41.96;57.45;;
56745;Laerm;42622;49.972;8.452;2022-08-19T03:41:32;44.57;41.96;57.45;;
56745;Laerm;42622;49.972;8.452;2022-08-19T03:43:59;44.95;42.47;49.29;;
56745;Laerm;42622;49.972;8.452;2022-08-19T03:46:32;44.86;42.41;51.24;;
56745;Laerm;42622;49.972;8.452;2022-08-19T03:49:03;45.00;42.65;51.43;;
56745;Laerm;42622;49.972;8.452;2022-08-19T03:51:37;46.06;42.59;59.26;;
56745;Laerm;42622;49.972;8.452;2022-08-19T03:54:12;44.74;42.65;48.10;;
56745;Laerm;42622;49.972;8.452;2022-08-19T03:56:42;47.55;42.09;60.07;;
56745;Laerm;42622;49.972;8.452;2022-08-19T03:59:18;44.78;42.09;50.29;;
56745;Laerm;42622;49.972;8.452;2022-08-19T04:01:45;47.30;42.98;62.83;;
56745;Laerm;42622;49.972;8.452;2022-08-19T04:04:11;44.26;42.35;50.64;;
56745;Laerm;42622;49.972;8.452;2022-08-19T04:06:39;44.10;41.96;48.73;;
56745;Laerm;42622;49.972;8.452;2022-08-19T04:09:09;44.15;42.22;51.53;;
56745;Laerm;42622;49.972;8.452;2022-08-19T04:14:10;45.37;42.16;51.84;;
56745;Laerm;42622;49.972;8.452;2022-08-19T04:16:37;43.81;41.75;50.05;;
56745;Laerm;42622;49.972;8.452;2022-08-19T04:19:05;44.47;42.41;49.24;;
56745;Laerm;42622;49.972;8.452;2022-08-19T04:21:33;59.36;42.71;74.04;;
56745;Laerm;42622;49.972;8.452;2022-08-19T04:24:00;47.84;42.71;58.31;;
56745;Laerm;42622;49.972;8.452;2022-08-19T04:26:33;44.80;42.59;50.34;;
56745;Laerm;42622;49.972;8.452;2022-08-19T04:29:09;45.30;43.04;48.88;;
56745;Laerm;42622;49.972;8.452;2022-08-19T04:31:35;46.54;43.09;54.67;;
56745;Laerm;42622;49.972;8.452;2022-08-19T04:34:07;47.44;43.54;67.18;;
56745;Laerm;42622;49.972;8.452;2022-08-19T04:39:15;52.24;43.90;63.40;;
56745;Laerm;42622;49.972;8.452;2022-08-19T04:41:43;53.63;44.04;68.73;;
56745;Laerm;42622;49.972;8.452;2022-08-19T04:44:34;50.90;43.72;68.85;;
56745;Laerm;42622;49.972;8.452;2022-08-19T04:47:01;47.67;43.19;60.59;;
56745;Laerm;42622;49.972;8.452;2022-08-19T04:49:31;46.02;43.34;63.51;;
56745;Laerm;42622;49.972;8.452;2022-08-19T04:51:56;49.55;43.34;69.61;;
56745;Laerm;42622;49.972;8.452;2022-08-19T04:54:25;49.85;42.88;65.04;;
56745;Laerm;42622;49.972;8.452;2022-08-19T04:59:21;45.36;42.88;62.58;;
56745;Laerm;42622;49.972;8.452;2022-08-19T05:01:48;54.16;43.68;67.47;;
56745;Laerm;42622;49.972;8.452;2022-08-19T05:04:18;47.26;43.19;60.30;;
56745;Laerm;42622;49.972;8.452;2022-08-19T05:06:48;46.68;43.24;59.76;;
56745;Laerm;42622;49.972;8.452;2022-08-19T05:09:15;46.33;43.81;58.84;;
56745;Laerm;42622;49.972;8.452;2022-08-19T05:11:42;51.70;43.94;65.04;;
56745;Laerm;42622;49.972;8.452;2022-08-19T05:14:10;51.70;44.07;65.78;;
56745;Laerm;42622;49.972;8.452;2022-08-19T05:16:39;51.92;43.81;65.75;;
56745;Laerm;42622;49.972;8.452;2022-08-19T05:19:05;54.75;44.35;69.06;;
56745;Laerm;42622;49.972;8.452;2022-08-19T05:22:00;53.83;44.31;67.18;;
56745;Laerm;42622;49.972;8.452;2022-08-19T05:24:45;54.87;44.39;66.34;;
56745;Laerm;42622;49.972;8.452;2022-08-19T05:27:10;48.11;44.23;57.67;;
56745;Laerm;42622;49.972;8.452;2022-08-19T05:29:36;56.44;44.07;70.23;;
56745;Laerm;42622;49.972;8.452;2022-08-19T05:32:05;54.86;44.51;67.34;;
56745;Laerm;42622;49.972;8.452;2022-08-19T05:34:34;47.81;44.35;58.17;;
56745;Laerm;42622;49.972;8.452;2022-08-19T05:37:04;46.88;43.39;65.77;;
56745;Laerm;42622;49.972;8.452;2022-08-19T05:39:35;48.37;44.35;60.20;;
56745;Laerm;42622;49.972;8.452;2022-08-19T05:42:07;54.13;44.19;67.76;;
56745;Laerm;42622;49.972;8.452;2022-08-19T05:44:41;48.32;44.19;60.88;;
56745;Laerm;42622;49.972;8.452;2022-08-19T05:47:13;51.62;43.99;65.85;;
56745;Laerm;42622;49.972;8.452;2022-08-19T05:49:42;53.56;44.47;68.72;;
56745;Laerm;42622;49.972;8.452;2022-08-19T05:54:43;54.41;43.77;67.09;;
56745;Laerm;42622;49.972;8.452;2022-08-19T05:57:10;55.84;43.86;69.13;;
56745;Laerm;42622;49.972;8.452;2022-08-19T05:59:37;46.66;43.09;59.10;;
56745;Laerm;42622;49.972;8.452;2022-08-19T06:02:06;53.15;42.93;65.12;;
56745;Laerm;42622;49.972;8.452;2022-08-19T06:04:32;53.15;42.93;65.12;;
56745;Laerm;42622;49.972;8.452;2022-08-19T06:06:59;46.48;42.93;64.03;;
56745;Laerm;42622;49.972;8.452;2022-08-19T06:09:25;46.28;42.98;58.33;;
56745;Laerm;42622;49.972;8.452;2022-08-19T06:11:59;55.95;44.04;69.29;;
56745;Laerm;42622;49.972;8.452;2022-08-19T06:14:33;49.28;43.34;70.55;;
56745;Laerm;42622;49.972;8.452;2022-08-19T06:17:02;54.73;43.94;67.71;;
56745;Laerm;42622;49.972;8.452;2022-08-19T06:19:31;57.50;43.99;72.42;;
56745;Laerm;42622;49.972;8.452;2022-08-19T06:21:59;55.08;43.81;69.00;;
56745;Laerm;42622;49.972;8.452;2022-08-19T06:24:29;55.13;43.72;70.03;;
56745;Laerm;42622;49.972;8.452;2022-08-19T06:27:00;47.44;43.39;63.29;;
56745;Laerm;42622;49.972;8.452;2022-08-19T06:29:27;51.18;43.80;66.04;;
56745;Laerm;42622;49.972;8.452;2022-08-19T06:31:59;50.26;43.44;65.67;;
56745;Laerm;42622;49.972;8.452;2022-08-19T06:34:30;47.05;43.24;65.28;;
56745;Laerm;42622;49.972;8.452;2022-08-19T06:37:00;52.51;43.90;66.40;;
56745;Laerm;42622;49.972;8.452;2022-08-19T06:39:37;46.32;43.77;56.91;;
56745;Laerm;42622;49.972;8.452;2022-08-19T06:42:06;47.12;43.54;66.24;;
56745;Laerm;42622;49.972;8.452;2022-08-19T06:44:39;45.91;42.88;62.06;;
56745;Laerm;42622;49.972;8.452;2022-08-19T06:47:11;53.28;43.19;68.49;;
56745;Laerm;42622;49.972;8.452;2022-08-19T06:52:05;45.50;42.82;52.80;;
56745;Laerm;42622;49.972;8.452;2022-08-19T06:54:32;55.93;43.63;69.71;;
56745;Laerm;42622;49.972;8.452;2022-08-19T06:57:01;46.52;43.29;56.56;;
56745;Laerm;42622;49.972;8.452;2022-08-19T06:59:30;48.93;42.71;73.86;;
56745;Laerm;42622;49.972;8.452;2022-08-19T07:02:03;49.98;43.49;68.12;;
56745;Laerm;42622;49.972;8.452;2022-08-19T07:04:35;48.67;43.24;64.30;;
56745;Laerm;42622;49.972;8.452;2022-08-19T07:07:09;45.29;43.09;53.69;;
56745;Laerm;42622;49.972;8.452;2022-08-19T07:09:43;45.24;42.71;56.07;;
56745;Laerm;42622;49.972;8.452;2022-08-19T07:12:13;47.13;43.77;62.64;;
56745;Laerm;42622;49.972;8.452;2022-08-19T07:14:42;46.15;42.98;58.11;;
56745;Laerm;42622;49.972;8.452;2022-08-19T07:17:11;46.77;43.24;61.57;;
56745;Laerm;42622;49.972;8.452;2022-08-19T07:19:40;47.67;42.93;65.51;;
56745;Laerm;42622;49.972;8.452;2022-08-19T07:22:09;48.00;43.86;68.54;;
56745;Laerm;42622;49.972;8.452;2022-08-19T07:24:38;55.31;44.19;66.33;;
56745;Laerm;42622;49.972;8.452;2022-08-19T07:27:06;55.79;43.77;68.58;;
56745;Laerm;42622;49.972;8.452;2022-08-19T07:29:35;48.00;43.39;63.53;;
56745;Laerm;42622;49.972;8.452;2022-08-19T07:32:04;51.02;44.73;75.52;;
56745;Laerm;42622;49.972;8.452;2022-08-19T07:34:33;48.90;44.35;63.81;;
56745;Laerm;42622;49.972;8.452;2022-08-19T07:37:07;48.32;43.90;67.42;;
56745;Laerm;42622;49.972;8.452;2022-08-19T07:39:37;46.95;43.90;61.69;;
56745;Laerm;42622;49.972;8.452;2022-08-19T07:42:09;47.57;43.58;59.03;;
56745;Laerm;42622;49.972;8.452;2022-08-19T07:44:37;47.29;43.81;58.16;;
56745;Laerm;42622;49.972;8.452;2022-08-19T07:47:05;49.26;43.81;68.90;;
56745;Laerm;42622;49.972;8.452;2022-08-19T07:49:30;48.88;44.31;70.63;;
56745;Laerm;42622;49.972;8.452;2022-08-19T07:52:08;49.05;44.07;70.16;;
56745;Laerm;42622;49.972;8.452;2022-08-19T07:54:38;49.42;44.73;72.30;;
56745;Laerm;42622;49.972;8.452;2022-08-19T07:57:06;56.51;43.94;74.26;;
56745;Laerm;42622;49.972;8.452;2022-08-19T07:59:35;50.46;43.77;68.93;;
56745;Laerm;42622;49.972;8.452;2022-08-19T08:02:01;52.33;44.52;66.97;;
56745;Laerm;42622;49.972;8.452;2022-08-19T08:04:30;48.06;44.58;60.50;;
56745;Laerm;42622;49.972;8.452;2022-08-19T08:07:15;54.38;45.17;72.31;;
56745;Laerm;42622;49.972;8.452;2022-08-19T08:10:00;47.99;44.35;69.12;;
56745;Laerm;42622;49.972;8.452;2022-08-19T08:12:35;47.45;44.52;62.72;;
56745;Laerm;42622;49.972;8.452;2022-08-19T08:15:11;47.73;45.04;56.58;;
56745;Laerm;42622;49.972;8.452;2022-08-19T08:17:40;47.79;43.77;64.88;;
56745;Laerm;42622;49.972;8.452;2022-08-19T08:20:07;46.82;44.01;65.08;;
56745;Laerm;42622;49.972;8.452;2022-08-19T08:22:33;55.02;45.17;70.16;;
56745;Laerm;42622;49.972;8.452;2022-08-19T08:25:23;48.29;44.58;58.01;;
56745;Laerm;42622;49.972;8.452;2022-08-19T08:27:50;56.06;44.15;74.45;;
56745;Laerm;42622;49.972;8.452;2022-08-19T08:30:24;47.71;44.58;57.51;;
56745;Laerm;42622;49.972;8.452;2022-08-19T08:32:52;46.88;43.99;60.77;;
56745;Laerm;42622;49.972;8.452;2022-08-19T08:35:22;48.36;44.39;61.96;;
56745;Laerm;42622;49.972;8.452;2022-08-19T08:37:52;47.77;44.51;58.73;;
56745;Laerm;42622;49.972;8.452;2022-08-19T08:40:38;48.04;44.35;60.03;;
56745;Laerm;42622;49.972;8.452;2022-08-19T08:43:33;47.72;44.51;58.59;;
56745;Laerm;42622;49.972;8.452;2022-08-19T08:46:13;47.68;44.07;71.96;;
56745;Laerm;42622;49.972;8.452;2022-08-19T08:52:15;55.85;43.90;72.39;;
56745;Laerm;42622;49.972;8.452;2022-08-19T08:54:48;61.56;44.90;75.91;;
56745;Laerm;42622;49.972;8.452;2022-08-19T08:57:35;52.94;45.23;77.08;;
56745;Laerm;42622;49.972;8.452;2022-08-19T09:00:15;55.16;45.01;68.19;;
56745;Laerm;42622;49.972;8.452;2022-08-19T09:02:44;48.75;45.01;63.01;;
56745;Laerm;42622;49.972;8.452;2022-08-19T09:05:11;49.21;45.07;61.89;;
56745;Laerm;42622;49.972;8.452;2022-08-19T09:08:00;56.83;45.04;69.18;;
56745;Laerm;42622;49.972;8.452;2022-08-19T09:10:52;55.08;44.90;72.59;;
56745;Laerm;42622;49.972;8.452;2022-08-19T09:16:30;55.68;46.07;71.06;;
56745;Laerm;42622;49.972;8.452;2022-08-19T09:19:08;53.49;45.72;77.07;;
56745;Laerm;42622;49.972;8.452;2022-08-19T09:21:34;51.96;45.27;74.84;;
56745;Laerm;42622;49.972;8.452;2022-08-19T09:24:02;57.81;45.54;72.90;;
56745;Laerm;42622;49.972;8.452;2022-08-19T09:26:29;55.38;45.01;68.57;;
56745;Laerm;42622;49.972;8.452;2022-08-19T09:28:57;50.27;46.13;61.74;;
56745;Laerm;42622;49.972;8.452;2022-08-19T09:31:28;48.83;44.87;60.91;;
56745;Laerm;42622;49.972;8.452;2022-08-19T09:33:55;47.53;44.31;57.48;;
56745;Laerm;42622;49.972;8.452;2022-08-19T09:36:28;60.19;44.65;73.56;;
56745;Laerm;42622;49.972;8.452;2022-08-19T09:39:05;56.73;45.63;72.03;;
56745;Laerm;42622;49.972;8.452;2022-08-19T09:41:32;49.53;44.58;65.76;;
56745;Laerm;42622;49.972;8.452;2022-08-19T09:43:59;55.18;45.07;71.61;;
56745;Laerm;42622;49.972;8.452;2022-08-19T09:46:29;54.71;44.58;69.86;;
56745;Laerm;42622;49.972;8.452;2022-08-19T09:48:59;48.61;43.94;65.64;;
56745;Laerm;42622;49.972;8.452;2022-08-19T09:51:28;56.30;44.31;71.88;;
56745;Laerm;42622;49.972;8.452;2022-08-19T09:54:00;53.74;44.65;67.56;;
56745;Laerm;42622;49.972;8.452;2022-08-19T09:56:29;56.95;44.35;72.45;;
56745;Laerm;42622;49.972;8.452;2022-08-19T09:58:58;47.78;44.03;61.56;;
56745;Laerm;42622;49.972;8.452;2022-08-19T10:01:29;47.07;44.07;59.35;;
56745;Laerm;42622;49.972;8.452;2022-08-19T10:03:59;45.96;42.93;51.06;;
56745;Laerm;42622;49.972;8.452;2022-08-19T10:06:29;46.55;41.96;54.89;;
56745;Laerm;42622;49.972;8.452;2022-08-19T10:08:58;46.41;43.39;62.13;;
56745;Laerm;42622;49.972;8.452;2022-08-19T10:11:24;46.15;43.29;53.14;;
56745;Laerm;42622;49.972;8.452;2022-08-19T10:13:50;46.85;43.72;58.95;;
56745;Laerm;42622;49.972;8.452;2022-08-19T10:16:23;47.29;43.81;64.73;;
56745;Laerm;42622;49.972;8.452;2022-08-19T10:18:51;47.93;43.68;63.37;;
56745;Laerm;42622;49.972;8.452;2022-08-19T10:21:27;46.05;42.82;65.75;;
56745;Laerm;42622;49.972;8.452;2022-08-19T10:23:59;47.15;43.81;59.77;;
56745;Laerm;42622;49.972;8.452;2022-08-19T10:26:35;53.59;42.59;70.39;;
56745;Laerm;42622;49.972;8.452;2022-08-19T10:29:05;52.07;43.63;67.89;;
56745;Laerm;42622;49.972;8.452;2022-08-19T10:31:33;53.88;42.65;68.08;;
56745;Laerm;42622;49.972;8.452;2022-08-19T10:34:01;46.47;42.65;65.90;;
56745;Laerm;42622;49.972;8.452;2022-08-19T10:36:35;47.44;42.71;61.01;;
56745;Laerm;42622;49.972;8.452;2022-08-19T10:39:08;44.50;42.35;51.44;;
56745;Laerm;42622;49.972;8.452;2022-08-19T10:41:38;44.55;42.35;59.21;;
56745;Laerm;42622;49.972;8.452;2022-08-19T10:44:10;54.12;42.76;69.56;;
56745;Laerm;42622;49.972;8.452;2022-08-19T10:46:42;45.03;42.03;56.96;;
56745;Laerm;42622;49.972;8.452;2022-08-19T10:49:12;44.31;41.68;51.46;;
56745;Laerm;42622;49.972;8.452;2022-08-19T10:51:40;45.09;41.96;53.39;;
56745;Laerm;42622;49.972;8.452;2022-08-19T10:54:26;44.46;41.96;52.06;;
56745;Laerm;42622;49.972;8.452;2022-08-19T10:57:14;45.15;42.16;68.36;;
56745;Laerm;42622;49.972;8.452;2022-08-19T10:59:40;46.53;41.75;58.99;;
56745;Laerm;42622;49.972;8.452;2022-08-19T11:02:11;44.52;41.82;52.74;;
56745;Laerm;42622;49.972;8.452;2022-08-19T11:04:40;46.15;41.46;59.23;;
56745;Laerm;42622;49.972;8.452;2022-08-19T11:07:07;44.16;40.43;56.62;;
56745;Laerm;42622;49.972;8.452;2022-08-19T11:09:41;53.31;41.75;74.56;;
56745;Laerm;42622;49.972;8.452;2022-08-19T11:12:09;46.10;41.96;60.10;;
56745;Laerm;42622;49.972;8.452;2022-08-19T11:14:36;54.41;41.89;68.76;;
56745;Laerm;42622;49.972;8.452;2022-08-19T11:17:05;44.26;40.03;54.46;;
56745;Laerm;42622;49.972;8.452;2022-08-19T11:19:31;55.52;42.47;69.75;;
56745;Laerm;42622;49.972;8.452;2022-08-19T11:22:00;49.48;42.71;63.44;;
56745;Laerm;42622;49.972;8.452;2022-08-19T11:24:30;47.60;42.71;61.80;;
56745;Laerm;42622;49.972;8.452;2022-08-19T11:27:07;45.70;41.89;64.09;;
56745;Laerm;42622;49.972;8.452;2022-08-19T11:29:38;44.68;42.29;56.25;;
56745;Laerm;42622;49.972;8.452;2022-08-19T11:32:10;54.58;42.59;72.17;;
56745;Laerm;42622;49.972;8.452;2022-08-19T11:34:37;46.97;42.41;69.58;;
56745;Laerm;42622;49.972;8.452;2022-08-19T11:37:04;45.27;42.09;56.31;;
56745;Laerm;42622;49.972;8.452;2022-08-19T11:39:34;54.89;42.16;72.08;;
56745;Laerm;42622;49.972;8.452;2022-08-19T11:42:05;51.07;43.81;65.86;;
56745;Laerm;42622;49.972;8.452;2022-08-19T11:44:52;58.38;45.14;73.71;;
56745;Laerm;42622;49.972;8.452;2022-08-19T11:47:19;65.11;44.94;79.69;;
56745;Laerm;42622;49.972;8.452;2022-08-19T11:49:47;54.67;43.14;72.20;;
56745;Laerm;42622;49.972;8.452;2022-08-19T11:52:13;46.39;43.94;52.19;;
56745;Laerm;42622;49.972;8.452;2022-08-19T11:54:38;46.16;42.65;62.78;;
56745;Laerm;42622;49.972;8.452;2022-08-19T11:57:04;58.01;44.27;72.29;;
56745;Laerm;42622;49.972;8.452;2022-08-19T11:59:30;47.47;44.23;59.80;;
56745;Laerm;42622;49.972;8.452;2022-08-19T12:01:56;48.46;43.93;69.67;;
56745;Laerm;42622;49.972;8.452;2022-08-19T12:04:23;45.11;41.38;56.95;;
56745;Laerm;42622;49.972;8.452;2022-08-19T12:06:49;55.03;43.86;71.02;;
56745;Laerm;42622;49.972;8.452;2022-08-19T12:09:16;46.01;42.71;53.13;;
56745;Laerm;42622;49.972;8.452;2022-08-19T12:11:44;44.65;40.98;59.06;;
56745;Laerm;42622;49.972;8.452;2022-08-19T12:14:13;53.86;41.89;70.58;;
56745;Laerm;42622;49.972;8.452;2022-08-19T12:16:40;45.23;42.76;54.07;;
56745;Laerm;42622;49.972;8.452;2022-08-19T12:19:07;45.14;41.30;57.62;;
56745;Laerm;42622;49.972;8.452;2022-08-19T12:21:35;44.22;40.96;57.42;;
56745;Laerm;42622;49.972;8.452;2022-08-19T12:24:05;45.10;40.89;65.92;;
56745;Laerm;42622;49.972;8.452;2022-08-19T12:26:31;43.57;40.13;62.53;;
56745;Laerm;42622;49.972;8.452;2022-08-19T12:28:59;44.94;42.03;62.08;;
56745;Laerm;42622;49.972;8.452;2022-08-19T12:31:27;45.29;43.09;51.71;;
56745;Laerm;42622;49.972;8.452;2022-08-19T12:33:54;45.78;42.88;54.54;;
56745;Laerm;42622;49.972;8.452;2022-08-19T12:36:20;49.68;42.76;63.71;;
56745;Laerm;42622;49.972;8.452;2022-08-19T12:38:47;53.58;43.49;70.22;;
56745;Laerm;42622;49.972;8.452;2022-08-19T12:41:17;45.45;42.82;57.19;;
56745;Laerm;42622;49.972;8.452;2022-08-19T12:43:45;60.00;43.77;74.61;;
56745;Laerm;42622;49.972;8.452;2022-08-19T12:46:12;59.28;42.47;75.18;;
56745;Laerm;42622;49.972;8.452;2022-08-19T12:48:39;50.91;43.90;71.20;;
56745;Laerm;42622;49.972;8.452;2022-08-19T12:51:16;48.56;43.54;64.36;;
56745;Laerm;42622;49.972;8.452;2022-08-19T12:53:45;47.65;43.54;65.23;;
56745;Laerm;42622;49.972;8.452;2022-08-19T12:56:13;46.94;41.53;64.38;;
56745;Laerm;42622;49.972;8.452;2022-08-19T12:58:41;54.52;42.90;69.39;;
56745;Laerm;42622;49.972;8.452;2022-08-19T13:01:16;46.72;43.34;62.83;;
56745;Laerm;42622;49.972;8.452;2022-08-19T13:03:45;46.89;43.29;64.75;;
56745;Laerm;42622;49.972;8.452;2022-08-19T13:06:12;53.35;42.82;69.12;;
56745;Laerm;42622;49.972;8.452;2022-08-19T13:08:38;54.28;42.85;69.62;;
56745;Laerm;42622;49.972;8.452;2022-08-19T13:11:22;45.99;42.93;58.91;;
56745;Laerm;42622;49.972;8.452;2022-08-19T13:13:52;48.17;42.71;66.45;;
56745;Laerm;42622;49.972;8.452;2022-08-19T13:16:19;49.30;43.86;66.91;;
56745;Laerm;42622;49.972;8.452;2022-08-19T13:18:46;53.98;44.27;72.56;;
56745;Laerm;42622;49.972;8.452;2022-08-19T13:21:13;48.82;43.90;61.65;;
56745;Laerm;42622;49.972;8.452;2022-08-19T13:23:40;56.67;44.73;71.26;;
56745;Laerm;42622;49.972;8.452;2022-08-19T13:26:09;52.66;42.35;77.76;;
56745;Laerm;42622;49.972;8.452;2022-08-19T13:28:36;55.01;43.24;67.87;;
56745;Laerm;42622;49.972;8.452;2022-08-19T13:31:25;48.38;43.24;62.73;;
56745;Laerm;42622;49.972;8.452;2022-08-19T13:34:11;59.25;42.98;76.94;;
56745;Laerm;42622;49.972;8.452;2022-08-19T13:36:40;55.96;43.58;69.34;;
56745;Laerm;42622;49.972;8.452;2022-08-19T13:39:07;48.69;44.31;57.92;;
56745;Laerm;42622;49.972;8.452;2022-08-19T13:41:36;49.35;44.19;70.42;;
56745;Laerm;42622;49.972;8.452;2022-08-19T13:44:04;47.71;44.35;58.55;;
56745;Laerm;42622;49.972;8.452;2022-08-19T13:46:32;48.66;42.65;72.42;;
56745;Laerm;42622;49.972;8.452;2022-08-19T13:48:57;59.16;42.59;74.85;;
56745;Laerm;42622;49.972;8.452;2022-08-19T13:51:23;59.54;43.49;74.79;;
56745;Laerm;42622;49.972;8.452;2022-08-19T13:53:49;51.62;44.07;67.34;;
56745;Laerm;42622;49.972;8.452;2022-08-19T13:56:19;49.14;43.44;63.93;;
56745;Laerm;42622;49.972;8.452;2022-08-19T13:58:45;54.34;42.29;73.48;;
56745;Laerm;42622;49.972;8.452;2022-08-19T14:01:12;48.44;43.09;65.36;;
56745;Laerm;42622;49.972;8.452;2022-08-19T14:03:39;49.77;43.72;63.44;;
56745;Laerm;42622;49.972;8.452;2022-08-19T14:06:04;57.09;43.39;72.62;;
56745;Laerm;42622;49.972;8.452;2022-08-19T14:08:30;49.46;41.22;64.24;;
56745;Laerm;42622;49.972;8.452;2022-08-19T14:10:58;46.99;42.35;63.87;;
56745;Laerm;42622;49.972;8.452;2022-08-19T14:13:24;46.16;42.03;68.76;;
56745;Laerm;42622;49.972;8.452;2022-08-19T14:15:51;51.69;43.68;71.61;;
56745;Laerm;42622;49.972;8.452;2022-08-19T14:18:19;51.17;43.81;79.33;;
56745;Laerm;42622;49.972;8.452;2022-08-19T14:20:45;49.85;43.77;70.43;;
56745;Laerm;42622;49.972;8.452;2022-08-19T14:23:11;49.84;43.24;68.87;;
56745;Laerm;42622;49.972;8.452;2022-08-19T14:25:38;56.37;43.90;77.02;;